sensor_id;sensor_type;location;lat;lon;timestamp;pressure;altitude;pressure_sealevel;temperature;humidity
23253;BME280;11795;47.054;15.408;2024-02-26T00:00:00;96300;;;3.9;83.2
23253;BME280;11795;47.054;15.408;2024-02-26T00:02:00;96300;;;3.8;83.3
23253;BME280;11795;47.054;15.408;2024-02-26T00:04:02;96300;;;4.1;82.3
23253;BME280;11795;47.054;15.408;2024-02-26T00:06:00;96300;;;3.8;82.7
23253;BME280;11795;47.054;15.408;2024-02-26T00:08:00;96300;;;3.7;83.6
23253;BME280;11795;47.054;15.408;2024-02-26T00:10:00;96290;;;3.8;83.1
23253;BME280;11795;47.054;15.408;2024-02-26T00:12:00;96290;;;3.8;83.1
23253;BME280;11795;47.054;15.408;2024-02-26T00:14:00;96280;;;3.9;82.6
23253;BME280;11795;47.054;15.408;2024-02-26T00:16:00;96270;;;3.6;83.1
23253;BME280;11795;47.054;15.408;2024-02-26T00:18:00;96280;;;3.5;84.0
23253;BME280;11795;47.054;15.408;2024-02-26T00:20:01;96270;;;3.6;83.4
23253;BME280;11795;47.054;15.408;2024-02-26T00:22:00;96270;;;3.5;83.8
23253;BME280;11795;47.054;15.408;2024-02-26T00:24:00;96270;;;3.8;83.6
23253;BME280;11795;47.054;15.408;2024-02-26T00:26:00;96270;;;3.7;83.7
23253;BME280;11795;47.054;15.408;2024-02-26T00:28:00;96270;;;3.5;85.8
23253;BME280;11795;47.054;15.408;2024-02-26T00:30:01;96270;;;3.6;85.5
23253;BME280;11795;47.054;15.408;2024-02-26T00:32:00;96270;;;3.5;86.1
23253;BME280;11795;47.054;15.408;2024-02-26T00:34:00;96260;;;3.7;86.0
23253;BME280;11795;47.054;15.408;2024-02-26T00:36:00;96270;;;3.5;86.1
23253;BME280;11795;47.054;15.408;2024-02-26T00:38:02;96260;;;3.5;86.6
23253;BME280;11795;47.054;15.408;2024-02-26T00:40:00;96260;;;3.5;86.0
23253;BME280;11795;47.054;15.408;2024-02-26T00:42:00;96270;;;3.5;86.4
23253;BME280;11795;47.054;15.408;2024-02-26T00:44:01;96260;;;3.7;85.7
23253;BME280;11795;47.054;15.408;2024-02-26T00:46:01;96270;;;3.5;85.8
23253;BME280;11795;47.054;15.408;2024-02-26T00:48:05;96270;;;3.4;86.1
23253;BME280;11795;47.054;15.408;2024-02-26T00:50:00;96270;;;3.6;84.1
23253;BME280;11795;47.054;15.408;2024-02-26T00:52:00;96270;;;3.3;84.4
23253;BME280;11795;47.054;15.408;2024-02-26T00:54:00;96270;;;3.4;84.5
23253;BME280;11795;47.054;15.408;2024-02-26T00:56:00;96270;;;3.1;85.5
23253;BME280;11795;47.054;15.408;2024-02-26T00:58:00;96270;;;3.0;86.1
23253;BME280;11795;47.054;15.408;2024-02-26T01:00:01;96270;;;3.2;85.7
23253;BME280;11795;47.054;15.408;2024-02-26T01:02:02;96260;;;3.1;86.2
23253;BME280;11795;47.054;15.408;2024-02-26T01:04:00;96260;;;3.3;85.9
23253;BME280;11795;47.054;15.408;2024-02-26T01:06:00;96250;;;3.2;85.9
23253;BME280;11795;47.054;15.408;2024-02-26T01:08:00;96260;;;3.2;86.0
23253;BME280;11795;47.054;15.408;2024-02-26T01:10:01;96250;;;3.2;85.1
23253;BME280;11795;47.054;15.408;2024-02-26T01:12:03;96260;;;3.0;85.7
23253;BME280;11795;47.054;15.408;2024-02-26T01:14:00;96250;;;3.2;85.5
23253;BME280;11795;47.054;15.408;2024-02-26T01:16:01;96260;;;3.1;85.4
23253;BME280;11795;47.054;15.408;2024-02-26T01:18:00;96260;;;2.9;85.8
23253;BME280;11795;47.054;15.408;2024-02-26T01:20:00;96250;;;3.0;85.0
23253;BME280;11795;47.054;15.408;2024-02-26T01:22:00;96250;;;2.9;85.5
23253;BME280;11795;47.054;15.408;2024-02-26T01:24:00;96240;;;3.1;85.3
23253;BME280;11795;47.054;15.408;2024-02-26T01:26:00;96240;;;3.0;85.3
23253;BME280;11795;47.054;15.408;2024-02-26T01:28:00;96240;;;2.9;85.7
23253;BME280;11795;47.054;15.408;2024-02-26T01:30:01;96240;;;3.0;85.3
23253;BME280;11795;47.054;15.408;2024-02-26T01:32:00;96240;;;2.9;85.7
23253;BME280;11795;47.054;15.408;2024-02-26T01:34:01;96240;;;3.2;84.6
23253;BME280;11795;47.054;15.408;2024-02-26T01:36:01;96230;;;3.0;84.6
23253;BME280;11795;47.054;15.408;2024-02-26T01:38:00;96230;;;2.8;85.3
23253;BME280;11795;47.054;15.408;2024-02-26T01:40:01;96230;;;3.0;85.2
23253;BME280;11795;47.054;15.408;2024-02-26T01:42:01;96230;;;2.9;85.7
23253;BME280;11795;47.054;15.408;2024-02-26T01:44:00;96220;;;3.1;85.7
23253;BME280;11795;47.054;15.408;2024-02-26T01:46:00;96220;;;2.9;86.1
23253;BME280;11795;47.054;15.408;2024-02-26T01:48:00;96220;;;2.8;86.6
23253;BME280;11795;47.054;15.408;2024-02-26T01:50:00;96220;;;3.0;85.5
23253;BME280;11795;47.054;15.408;2024-02-26T01:52:01;96210;;;3.0;85.1
23253;BME280;11795;47.054;15.408;2024-02-26T01:54:02;96210;;;3.0;85.4
23253;BME280;11795;47.054;15.408;2024-02-26T01:56:00;96210;;;2.8;85.7
23253;BME280;11795;47.054;15.408;2024-02-26T01:58:00;96210;;;2.7;86.5
23253;BME280;11795;47.054;15.408;2024-02-26T02:00:01;96210;;;2.8;86.1
23253;BME280;11795;47.054;15.408;2024-02-26T02:02:01;96210;;;2.7;86.8
23253;BME280;11795;47.054;15.408;2024-02-26T02:04:01;96210;;;2.9;86.2
23253;BME280;11795;47.054;15.408;2024-02-26T02:06:01;96200;;;2.8;86.1
23253;BME280;11795;47.054;15.408;2024-02-26T02:08:00;96210;;;2.7;86.7
23253;BME280;11795;47.054;15.408;2024-02-26T02:10:01;96200;;;2.8;86.0
23253;BME280;11795;47.054;15.408;2024-02-26T02:12:01;96200;;;2.7;86.4
23253;BME280;11795;47.054;15.408;2024-02-26T02:14:00;96200;;;2.9;86.4
23253;BME280;11795;47.054;15.408;2024-02-26T02:16:00;96200;;;2.7;86.3
23253;BME280;11795;47.054;15.408;2024-02-26T02:18:01;96200;;;2.6;86.9
23253;BME280;11795;47.054;15.408;2024-02-26T02:20:00;96200;;;2.8;86.1
23253;BME280;11795;47.054;15.408;2024-02-26T02:22:00;96200;;;2.7;86.6
23253;BME280;11795;47.054;15.408;2024-02-26T02:24:00;96200;;;2.8;86.8
23253;BME280;11795;47.054;15.408;2024-02-26T02:26:00;96200;;;2.7;86.9
23253;BME280;11795;47.054;15.408;2024-02-26T02:28:01;96200;;;2.6;87.3
23253;BME280;11795;47.054;15.408;2024-02-26T02:30:01;96200;;;2.7;86.6
23253;BME280;11795;47.054;15.408;2024-02-26T02:32:01;96200;;;2.6;87.3
23253;BME280;11795;47.054;15.408;2024-02-26T02:34:00;96200;;;2.8;87.1
23253;BME280;11795;47.054;15.408;2024-02-26T02:36:00;96200;;;2.6;87.2
23253;BME280;11795;47.054;15.408;2024-02-26T02:38:00;96200;;;2.6;87.5
23253;BME280;11795;47.054;15.408;2024-02-26T02:40:01;96200;;;2.8;86.0
23253;BME280;11795;47.054;15.408;2024-02-26T02:42:00;96200;;;2.7;86.2
23253;BME280;11795;47.054;15.408;2024-02-26T02:44:00;96200;;;2.8;86.2
23253;BME280;11795;47.054;15.408;2024-02-26T02:46:00;96210;;;2.6;86.2
23253;BME280;11795;47.054;15.408;2024-02-26T02:48:00;96200;;;2.5;86.7
23253;BME280;11795;47.054;15.408;2024-02-26T02:50:00;96200;;;2.6;86.3
23253;BME280;11795;47.054;15.408;2024-02-26T02:52:01;96200;;;2.4;87.1
23253;BME280;11795;47.054;15.408;2024-02-26T02:54:00;96200;;;2.6;86.8
23253;BME280;11795;47.054;15.408;2024-02-26T02:56:00;96200;;;2.5;86.5
23253;BME280;11795;47.054;15.408;2024-02-26T02:58:01;96200;;;2.3;87.7
23253;BME280;11795;47.054;15.408;2024-02-26T03:00:00;96200;;;2.5;87.1
23253;BME280;11795;47.054;15.408;2024-02-26T03:02:00;96200;;;2.4;87.7
23253;BME280;11795;47.054;15.408;2024-02-26T03:04:00;96190;;;2.5;87.8
23253;BME280;11795;47.054;15.408;2024-02-26T03:06:00;96190;;;2.4;87.6
23253;BME280;11795;47.054;15.408;2024-02-26T03:08:00;96180;;;2.3;88.0
23253;BME280;11795;47.054;15.408;2024-02-26T03:10:00;96180;;;2.5;87.5
23253;BME280;11795;47.054;15.408;2024-02-26T03:12:00;96180;;;2.4;88.2
23253;BME280;11795;47.054;15.408;2024-02-26T03:14:00;96180;;;2.5;88.0
23253;BME280;11795;47.054;15.408;2024-02-26T03:16:04;96190;;;2.5;87.5
23253;BME280;11795;47.054;15.408;2024-02-26T03:18:00;96180;;;2.3;87.8
23253;BME280;11795;47.054;15.408;2024-02-26T03:20:00;96180;;;2.5;87.3
23253;BME280;11795;47.054;15.408;2024-02-26T03:22:00;96180;;;2.4;87.9
23253;BME280;11795;47.054;15.408;2024-02-26T03:24:00;96170;;;2.5;88.2
23253;BME280;11795;47.054;15.408;2024-02-26T03:26:01;96170;;;2.4;88.0
23253;BME280;11795;47.054;15.408;2024-02-26T03:28:00;96170;;;2.3;88.4
23253;BME280;11795;47.054;15.408;2024-02-26T03:30:01;96170;;;2.5;87.2
23253;BME280;11795;47.054;15.408;2024-02-26T03:32:00;96160;;;2.2;87.4
23253;BME280;11795;47.054;15.408;2024-02-26T03:34:00;96160;;;2.3;87.5
23253;BME280;11795;47.054;15.408;2024-02-26T03:36:00;96160;;;2.1;87.2
23253;BME280;11795;47.054;15.408;2024-02-26T03:38:01;96160;;;2.1;87.5
23253;BME280;11795;47.054;15.408;2024-02-26T03:40:01;96150;;;2.2;86.9
23253;BME280;11795;47.054;15.408;2024-02-26T03:42:00;96160;;;2.0;87.2
23253;BME280;11795;47.054;15.408;2024-02-26T03:44:00;96160;;;2.2;87.1
23253;BME280;11795;47.054;15.408;2024-02-26T03:46:00;96150;;;2.0;86.8
23253;BME280;11795;47.054;15.408;2024-02-26T03:48:00;96160;;;1.9;87.5
23253;BME280;11795;47.054;15.408;2024-02-26T03:50:00;96160;;;2.0;87.0
23253;BME280;11795;47.054;15.408;2024-02-26T03:52:00;96160;;;1.9;87.3
23253;BME280;11795;47.054;15.408;2024-02-26T03:54:01;96160;;;2.0;87.3
23253;BME280;11795;47.054;15.408;2024-02-26T03:56:03;96170;;;1.9;87.3
23253;BME280;11795;47.054;15.408;2024-02-26T03:58:01;96170;;;1.8;88.0
23253;BME280;11795;47.054;15.408;2024-02-26T04:00:00;96170;;;2.0;87.6
23253;BME280;11795;47.054;15.408;2024-02-26T04:02:02;96170;;;1.9;88.2
23253;BME280;11795;47.054;15.408;2024-02-26T04:04:00;96170;;;2.0;88.4
23253;BME280;11795;47.054;15.408;2024-02-26T04:06:01;96170;;;1.9;88.2
23253;BME280;11795;47.054;15.408;2024-02-26T04:08:00;96170;;;1.8;88.5
23253;BME280;11795;47.054;15.408;2024-02-26T04:10:00;96160;;;2.0;87.8
23253;BME280;11795;47.054;15.408;2024-02-26T04:12:00;96160;;;1.8;88.4
23253;BME280;11795;47.054;15.408;2024-02-26T04:14:00;96160;;;2.0;88.1
23253;BME280;11795;47.054;15.408;2024-02-26T04:16:01;96160;;;1.9;87.7
23253;BME280;11795;47.054;15.408;2024-02-26T04:18:00;96160;;;1.9;87.5
23253;BME280;11795;47.054;15.408;2024-02-26T04:20:00;96160;;;2.0;86.7
23253;BME280;11795;47.054;15.408;2024-02-26T04:22:01;96160;;;1.7;87.3
23253;BME280;11795;47.054;15.408;2024-02-26T04:24:02;96160;;;1.8;87.8
23253;BME280;11795;47.054;15.408;2024-02-26T04:26:01;96160;;;1.7;87.6
23253;BME280;11795;47.054;15.408;2024-02-26T04:28:00;96160;;;1.6;88.2
23253;BME280;11795;47.054;15.408;2024-02-26T04:30:00;96160;;;1.8;87.7
23253;BME280;11795;47.054;15.408;2024-02-26T04:32:00;96160;;;1.6;88.3
23253;BME280;11795;47.054;15.408;2024-02-26T04:34:00;96160;;;1.7;88.7
23253;BME280;11795;47.054;15.408;2024-02-26T04:36:00;96160;;;1.6;88.5
23253;BME280;11795;47.054;15.408;2024-02-26T04:38:00;96160;;;1.6;89.0
23253;BME280;11795;47.054;15.408;2024-02-26T04:40:01;96160;;;1.8;87.9
23253;BME280;11795;47.054;15.408;2024-02-26T04:42:04;96150;;;1.7;87.9
23253;BME280;11795;47.054;15.408;2024-02-26T04:44:00;96160;;;1.7;88.3
23253;BME280;11795;47.054;15.408;2024-02-26T04:46:00;96160;;;1.6;88.3
23253;BME280;11795;47.054;15.408;2024-02-26T04:48:00;96160;;;1.5;88.9
23253;BME280;11795;47.054;15.408;2024-02-26T04:50:01;96150;;;1.6;88.5
23253;BME280;11795;47.054;15.408;2024-02-26T04:52:00;96160;;;1.5;88.9
23253;BME280;11795;47.054;15.408;2024-02-26T04:54:00;96160;;;1.7;88.8
23253;BME280;11795;47.054;15.408;2024-02-26T04:56:00;96160;;;1.6;88.5
23253;BME280;11795;47.054;15.408;2024-02-26T04:58:00;96160;;;1.4;89.0
23253;BME280;11795;47.054;15.408;2024-02-26T05:00:00;96160;;;1.6;88.5
23253;BME280;11795;47.054;15.408;2024-02-26T05:02:00;96160;;;1.4;89.1
23253;BME280;11795;47.054;15.408;2024-02-26T05:04:00;96150;;;1.5;89.3
23253;BME280;11795;47.054;15.408;2024-02-26T05:06:01;96150;;;1.4;90.2
23253;BME280;11795;47.054;15.408;2024-02-26T05:08:00;96150;;;1.4;90.2
23253;BME280;11795;47.054;15.408;2024-02-26T05:10:00;96150;;;1.6;89.2
23253;BME280;11795;47.054;15.408;2024-02-26T05:12:01;96160;;;1.5;89.6
23253;BME280;11795;47.054;15.408;2024-02-26T05:14:01;96150;;;1.6;89.7
23253;BME280;11795;47.054;15.408;2024-02-26T05:16:00;96150;;;1.6;89.5
23253;BME280;11795;47.054;15.408;2024-02-26T05:20:04;96150;;;1.6;89.5
23253;BME280;11795;47.054;15.408;2024-02-26T05:32:00;96150;;;1.5;89.7
23253;BME280;11795;47.054;15.408;2024-02-26T05:34:00;96140;;;1.6;89.6
23253;BME280;11795;47.054;15.408;2024-02-26T05:36:04;96140;;;1.5;89.4
23253;BME280;11795;47.054;15.408;2024-02-26T05:38:00;96130;;;1.5;89.8
23253;BME280;11795;47.054;15.408;2024-02-26T05:40:00;96150;;;1.7;89.0
23253;BME280;11795;47.054;15.408;2024-02-26T05:42:00;96140;;;1.5;89.4
23253;BME280;11795;47.054;15.408;2024-02-26T05:44:00;96140;;;1.6;89.6
23253;BME280;11795;47.054;15.408;2024-02-26T05:46:00;96150;;;1.6;89.4
23253;BME280;11795;47.054;15.408;2024-02-26T05:48:00;96140;;;1.5;89.6
23253;BME280;11795;47.054;15.408;2024-02-26T05:50:01;96150;;;1.6;89.2
23253;BME280;11795;47.054;15.408;2024-02-26T05:52:00;96160;;;1.5;89.7
23253;BME280;11795;47.054;15.408;2024-02-26T05:54:00;96150;;;1.5;89.8
23253;BME280;11795;47.054;15.408;2024-02-26T05:56:00;96150;;;1.5;89.5
23253;BME280;11795;47.054;15.408;2024-02-26T05:58:00;96160;;;1.6;89.8
23253;BME280;11795;47.054;15.408;2024-02-26T06:00:04;96160;;;1.8;88.6
23253;BME280;11795;47.054;15.408;2024-02-26T06:02:00;96160;;;1.6;89.4
23253;BME280;11795;47.054;15.408;2024-02-26T06:04:00;96160;;;1.7;89.7
23253;BME280;11795;47.054;15.408;2024-02-26T06:06:00;96160;;;1.6;89.5
23253;BME280;11795;47.054;15.408;2024-02-26T06:08:01;96160;;;1.6;90.1
23253;BME280;11795;47.054;15.408;2024-02-26T06:10:00;96160;;;1.8;89.6
23253;BME280;11795;47.054;15.408;2024-02-26T06:12:00;96160;;;1.7;90.1
23253;BME280;11795;47.054;15.408;2024-02-26T06:14:00;96170;;;1.8;89.6
23253;BME280;11795;47.054;15.408;2024-02-26T06:16:00;96170;;;1.8;89.2
23253;BME280;11795;47.054;15.408;2024-02-26T06:18:00;96180;;;1.8;89.6
23253;BME280;11795;47.054;15.408;2024-02-26T06:20:00;96180;;;2.0;88.5
23253;BME280;11795;47.054;15.408;2024-02-26T06:22:00;96180;;;1.8;88.8
23253;BME280;11795;47.054;15.408;2024-02-26T06:24:00;96180;;;1.8;89.2
23253;BME280;11795;47.054;15.408;2024-02-26T06:26:00;96190;;;1.9;88.9
23253;BME280;11795;47.054;15.408;2024-02-26T06:28:00;96190;;;1.8;89.3
23253;BME280;11795;47.054;15.408;2024-02-26T06:30:00;96190;;;2.1;88.7
23253;BME280;11795;47.054;15.408;2024-02-26T06:32:00;96190;;;2.1;88.9
23253;BME280;11795;47.054;15.408;2024-02-26T06:34:00;96200;;;2.2;88.9
23253;BME280;11795;47.054;15.408;2024-02-26T06:36:00;96200;;;2.3;88.1
23253;BME280;11795;47.054;15.408;2024-02-26T06:38:00;96200;;;2.3;88.4
23253;BME280;11795;47.054;15.408;2024-02-26T06:40:01;96200;;;2.5;87.9
23253;BME280;11795;47.054;15.408;2024-02-26T06:42:01;96200;;;2.5;88.1
23253;BME280;11795;47.054;15.408;2024-02-26T06:44:00;96210;;;2.8;88.2
23253;BME280;11795;47.054;15.408;2024-02-26T06:46:00;96200;;;3.4;87.4
23253;BME280;11795;47.054;15.408;2024-02-26T06:48:01;96200;;;4.0;84.9
23253;BME280;11795;47.054;15.408;2024-02-26T06:50:01;96200;;;4.8;81.4
23253;BME280;11795;47.054;15.408;2024-02-26T06:52:00;96200;;;5.2;78.2
23253;BME280;11795;47.054;15.408;2024-02-26T06:54:00;96200;;;5.8;76.2
23253;BME280;11795;47.054;15.408;2024-02-26T06:56:00;96200;;;6.3;72.9
23253;BME280;11795;47.054;15.408;2024-02-26T06:58:00;96210;;;6.5;71.5
23253;BME280;11795;47.054;15.408;2024-02-26T07:00:00;96200;;;6.9;69.6
23253;BME280;11795;47.054;15.408;2024-02-26T07:02:00;96200;;;7.1;69.0
23253;BME280;11795;47.054;15.408;2024-02-26T07:04:00;96200;;;7.3;67.6
23253;BME280;11795;47.054;15.408;2024-02-26T07:06:01;96200;;;7.5;66.7
23253;BME280;11795;47.054;15.408;2024-02-26T07:08:00;96210;;;7.5;66.0
23253;BME280;11795;47.054;15.408;2024-02-26T07:10:04;96200;;;7.7;65.9
23253;BME280;11795;47.054;15.408;2024-02-26T07:12:00;96200;;;7.8;65.1
23253;BME280;11795;47.054;15.408;2024-02-26T07:14:01;96210;;;7.7;65.5
23253;BME280;11795;47.054;15.408;2024-02-26T07:16:00;96210;;;7.5;66.3
23253;BME280;11795;47.054;15.408;2024-02-26T07:18:04;96210;;;7.3;67.1
23253;BME280;11795;47.054;15.408;2024-02-26T07:20:00;96210;;;7.5;67.2
23253;BME280;11795;47.054;15.408;2024-02-26T07:22:01;96220;;;7.4;67.1
23253;BME280;11795;47.054;15.408;2024-02-26T07:24:00;96210;;;7.2;68.4
23253;BME280;11795;47.054;15.408;2024-02-26T07:26:00;96210;;;7.3;68.8
23253;BME280;11795;47.054;15.408;2024-02-26T07:28:01;96210;;;7.3;68.6
23253;BME280;11795;47.054;15.408;2024-02-26T07:30:01;96210;;;7.6;68.1
23253;BME280;11795;47.054;15.408;2024-02-26T07:32:00;96210;;;7.5;67.9
23253;BME280;11795;47.054;15.408;2024-02-26T07:34:00;96210;;;7.6;68.0
23253;BME280;11795;47.054;15.408;2024-02-26T07:36:00;96210;;;7.8;66.9
23253;BME280;11795;47.054;15.408;2024-02-26T07:38:01;96200;;;7.4;67.2
23253;BME280;11795;47.054;15.408;2024-02-26T07:42:01;96220;;;7.7;67.2
23253;BME280;11795;47.054;15.408;2024-02-26T07:44:00;96210;;;7.9;66.7
23253;BME280;11795;47.054;15.408;2024-02-26T07:46:00;96210;;;8.1;66.3
23253;BME280;11795;47.054;15.408;2024-02-26T07:48:00;96210;;;8.2;65.8
23253;BME280;11795;47.054;15.408;2024-02-26T07:50:01;96210;;;8.4;64.6
23253;BME280;11795;47.054;15.408;2024-02-26T07:52:00;96220;;;8.4;65.7
23253;BME280;11795;47.054;15.408;2024-02-26T07:54:01;96210;;;8.6;65.0
23253;BME280;11795;47.054;15.408;2024-02-26T07:56:00;96210;;;8.8;64.5
23253;BME280;11795;47.054;15.408;2024-02-26T07:58:01;96210;;;8.9;64.2
23253;BME280;11795;47.054;15.408;2024-02-26T08:00:01;96220;;;9.1;62.8
23253;BME280;11795;47.054;15.408;2024-02-26T08:02:03;96220;;;9.2;62.9
23253;BME280;11795;47.054;15.408;2024-02-26T08:04:00;96220;;;9.2;63.2
23253;BME280;11795;47.054;15.408;2024-02-26T08:06:01;96230;;;9.3;63.3
23253;BME280;11795;47.054;15.408;2024-02-26T08:08:00;96230;;;9.2;62.1
23253;BME280;11795;47.054;15.408;2024-02-26T08:10:00;96230;;;9.3;62.1
23253;BME280;11795;47.054;15.408;2024-02-26T08:12:00;96220;;;9.4;62.6
23253;BME280;11795;47.054;15.408;2024-02-26T08:14:00;96230;;;9.3;62.6
23253;BME280;11795;47.054;15.408;2024-02-26T08:16:00;96220;;;9.6;61.9
23253;BME280;11795;47.054;15.408;2024-02-26T08:18:02;96230;;;9.8;60.9
23253;BME280;11795;47.054;15.408;2024-02-26T08:20:01;96220;;;9.9;60.2
23253;BME280;11795;47.054;15.408;2024-02-26T08:22:00;96230;;;9.8;60.4
23253;BME280;11795;47.054;15.408;2024-02-26T08:24:00;96230;;;10.0;59.4
23253;BME280;11795;47.054;15.408;2024-02-26T08:26:00;96230;;;10.1;59.6
23253;BME280;11795;47.054;15.408;2024-02-26T08:28:01;96230;;;9.4;60.8
23253;BME280;11795;47.054;15.408;2024-02-26T08:30:00;96240;;;9.8;60.3
23253;BME280;11795;47.054;15.408;2024-02-26T08:32:01;96240;;;10.0;60.9
23253;BME280;11795;47.054;15.408;2024-02-26T08:34:01;96240;;;10.3;60.2
23253;BME280;11795;47.054;15.408;2024-02-26T08:36:03;96230;;;10.2;59.3
23253;BME280;11795;47.054;15.408;2024-02-26T08:38:00;96230;;;9.9;58.6
23253;BME280;11795;47.054;15.408;2024-02-26T08:40:00;96230;;;9.9;59.0
23253;BME280;11795;47.054;15.408;2024-02-26T08:42:00;96230;;;10.1;59.4
23253;BME280;11795;47.054;15.408;2024-02-26T08:44:00;96230;;;10.3;59.1
23253;BME280;11795;47.054;15.408;2024-02-26T08:46:00;96240;;;10.6;58.2
23253;BME280;11795;47.054;15.408;2024-02-26T08:48:00;96240;;;10.8;58.0
23253;BME280;11795;47.054;15.408;2024-02-26T08:50:00;96240;;;11.0;58.1
23253;BME280;11795;47.054;15.408;2024-02-26T08:52:00;96240;;;10.7;57.8
23253;BME280;11795;47.054;15.408;2024-02-26T08:54:00;96240;;;11.1;56.3
23253;BME280;11795;47.054;15.408;2024-02-26T08:56:01;96230;;;11.4;56.0
23253;BME280;11795;47.054;15.408;2024-02-26T08:58:00;96240;;;11.4;55.4
23253;BME280;11795;47.054;15.408;2024-02-26T09:00:01;96240;;;11.8;55.3
23253;BME280;11795;47.054;15.408;2024-02-26T09:02:00;96240;;;11.6;54.6
23253;BME280;11795;47.054;15.408;2024-02-26T09:04:00;96240;;;11.5;54.5
23253;BME280;11795;47.054;15.408;2024-02-26T09:06:01;96240;;;11.1;54.2
23253;BME280;11795;47.054;15.408;2024-02-26T09:08:00;96240;;;11.2;54.8
23253;BME280;11795;47.054;15.408;2024-02-26T09:10:00;96230;;;11.4;55.0
23253;BME280;11795;47.054;15.408;2024-02-26T09:12:00;96230;;;11.6;55.3
23253;BME280;11795;47.054;15.408;2024-02-26T09:14:00;96230;;;11.6;54.5
23253;BME280;11795;47.054;15.408;2024-02-26T09:16:01;96230;;;11.7;54.1
23253;BME280;11795;47.054;15.408;2024-02-26T09:18:00;96220;;;11.6;54.1
23253;BME280;11795;47.054;15.408;2024-02-26T09:20:01;96220;;;11.8;54.2
23253;BME280;11795;47.054;15.408;2024-02-26T09:22:00;96220;;;11.8;54.7
23253;BME280;11795;47.054;15.408;2024-02-26T09:24:00;96220;;;12.0;54.3
23253;BME280;11795;47.054;15.408;2024-02-26T09:26:00;96230;;;12.3;53.5
23253;BME280;11795;47.054;15.408;2024-02-26T09:28:01;96230;;;12.2;52.6
23253;BME280;11795;47.054;15.408;2024-02-26T09:30:00;96220;;;12.3;52.6
23253;BME280;11795;47.054;15.408;2024-02-26T09:32:01;96220;;;12.3;53.0
23253;BME280;11795;47.054;15.408;2024-02-26T09:34:00;96220;;;12.4;53.6
23253;BME280;11795;47.054;15.408;2024-02-26T09:36:00;96220;;;12.6;53.2
23253;BME280;11795;47.054;15.408;2024-02-26T09:38:01;96220;;;12.4;52.8
23253;BME280;11795;47.054;15.408;2024-02-26T09:40:00;96220;;;12.6;53.1
23253;BME280;11795;47.054;15.408;2024-02-26T09:42:04;96230;;;12.4;52.3
23253;BME280;11795;47.054;15.408;2024-02-26T09:44:02;96230;;;12.2;52.4
23253;BME280;11795;47.054;15.408;2024-02-26T09:46:02;96230;;;12.1;52.0
23253;BME280;11795;47.054;15.408;2024-02-26T09:48:02;96240;;;12.2;52.1
23253;BME280;11795;47.054;15.408;2024-02-26T09:50:02;96240;;;12.4;51.9
23253;BME280;11795;47.054;15.408;2024-02-26T09:52:03;96240;;;12.1;52.8
23253;BME280;11795;47.054;15.408;2024-02-26T09:54:01;96240;;;12.1;52.7
23253;BME280;11795;47.054;15.408;2024-02-26T09:56:00;96240;;;12.2;52.9
23253;BME280;11795;47.054;15.408;2024-02-26T09:58:01;96240;;;12.4;52.7
23253;BME280;11795;47.054;15.408;2024-02-26T10:00:03;96230;;;12.9;52.2
23253;BME280;11795;47.054;15.408;2024-02-26T10:02:01;96230;;;13.0;51.3
23253;BME280;11795;47.054;15.408;2024-02-26T10:04:01;96240;;;12.9;51.2
23253;BME280;11795;47.054;15.408;2024-02-26T10:06:03;96240;;;13.0;50.8
23253;BME280;11795;47.054;15.408;2024-02-26T10:08:01;96240;;;12.6;51.3
23253;BME280;11795;47.054;15.408;2024-02-26T10:10:01;96240;;;13.1;51.3
23253;BME280;11795;47.054;15.408;2024-02-26T10:12:00;96250;;;13.4;50.6
23253;BME280;11795;47.054;15.408;2024-02-26T10:14:00;96250;;;13.7;50.2
23253;BME280;11795;47.054;15.408;2024-02-26T10:16:04;96240;;;13.9;48.0
23253;BME280;11795;47.054;15.408;2024-02-26T10:18:04;96230;;;14.0;48.2
23253;BME280;11795;47.054;15.408;2024-02-26T10:22:01;96240;;;13.7;47.8
23253;BME280;11795;47.054;15.408;2024-02-26T10:24:00;96240;;;13.9;48.4
23253;BME280;11795;47.054;15.408;2024-02-26T10:26:01;96240;;;14.1;47.5
23253;BME280;11795;47.054;15.408;2024-02-26T10:28:02;96250;;;14.2;46.8
23253;BME280;11795;47.054;15.408;2024-02-26T10:30:03;96250;;;13.9;46.5
23253;BME280;11795;47.054;15.408;2024-02-26T10:32:01;96250;;;13.5;47.0
23253;BME280;11795;47.054;15.408;2024-02-26T10:34:03;96250;;;13.3;48.0
23253;BME280;11795;47.054;15.408;2024-02-26T10:36:01;96250;;;13.2;47.8
23253;BME280;11795;47.054;15.408;2024-02-26T10:38:00;96240;;;13.1;48.0
23253;BME280;11795;47.054;15.408;2024-02-26T10:40:01;96240;;;13.4;48.7
23253;BME280;11795;47.054;15.408;2024-02-26T10:42:05;96240;;;13.7;46.4
23253;BME280;11795;47.054;15.408;2024-02-26T10:44:01;96250;;;13.7;46.9
23253;BME280;11795;47.054;15.408;2024-02-26T10:46:02;96250;;;13.9;46.3
23253;BME280;11795;47.054;15.408;2024-02-26T10:48:01;96240;;;13.7;45.5
23253;BME280;11795;47.054;15.408;2024-02-26T10:50:02;96240;;;13.8;45.5
23253;BME280;11795;47.054;15.408;2024-02-26T10:52:01;96240;;;13.7;45.3
23253;BME280;11795;47.054;15.408;2024-02-26T10:54:03;96250;;;13.7;45.8
23253;BME280;11795;47.054;15.408;2024-02-26T10:56:04;96250;;;14.1;46.3
23253;BME280;11795;47.054;15.408;2024-02-26T10:58:01;96250;;;14.3;44.4
23253;BME280;11795;47.054;15.408;2024-02-26T11:00:03;96240;;;14.6;44.0
23253;BME280;11795;47.054;15.408;2024-02-26T11:02:01;96240;;;14.5;43.4
23253;BME280;11795;47.054;15.408;2024-02-26T11:04:03;96240;;;14.4;44.2
23253;BME280;11795;47.054;15.408;2024-02-26T11:06:01;96240;;;14.5;44.2
23253;BME280;11795;47.054;15.408;2024-02-26T11:08:02;96240;;;14.2;44.8
23253;BME280;11795;47.054;15.408;2024-02-26T11:10:03;96230;;;14.3;44.4
23253;BME280;11795;47.054;15.408;2024-02-26T11:12:02;96230;;;14.3;44.6
23253;BME280;11795;47.054;15.408;2024-02-26T11:14:01;96230;;;14.4;43.2
23253;BME280;11795;47.054;15.408;2024-02-26T11:16:02;96230;;;14.3;44.0
23253;BME280;11795;47.054;15.408;2024-02-26T11:18:02;96230;;;14.2;43.3
23253;BME280;11795;47.054;15.408;2024-02-26T11:20:04;96220;;;14.2;43.3
23253;BME280;11795;47.054;15.408;2024-02-26T11:22:02;96220;;;14.0;44.0
23253;BME280;11795;47.054;15.408;2024-02-26T11:24:03;96220;;;13.8;43.4
23253;BME280;11795;47.054;15.408;2024-02-26T11:26:04;96220;;;13.6;43.5
23253;BME280;11795;47.054;15.408;2024-02-26T11:28:04;96220;;;13.5;44.6
23253;BME280;11795;47.054;15.408;2024-02-26T11:30:02;96220;;;13.8;44.2
23253;BME280;11795;47.054;15.408;2024-02-26T11:32:03;96210;;;13.9;44.4
23253;BME280;11795;47.054;15.408;2024-02-26T11:34:01;96210;;;14.0;44.8